Aviation Digital Data Service (ADDS)

Output produced by METARs form (1415 UTC 19 April 2019)
found at http://www.aviationweather.gov/metar/data/
 
HSOB 191300Z 01014KT CAVOK 37/M06 Q1010
TAF HSOB 191100Z 1912/2018 02012G22KT CAVOK 
     TEMPO 1912/1915 6000
       
TAF HSSJ 191000Z 1912/2018 16005KT 9999 FEW040 BKN090 
     TEMPO 1912/1918 VRB10G20KT 8000 FEW040 BKN120 
     PROB30 
     TEMPO 1918/1924 21010G20KT 4000 TSRA FEW045CB BKN120
       
TAF HSKA 191100Z 1912/2018 05007KT CAVOK
       
HSSS 191400Z 34018KT 4000 BLSA 38/M02 Q1009 NOSIG
TAF HSSS 191100Z 1912/2018 03012G22KT 6000 NSC 
     TEMPO 1912/1915 4000 BLSA
       
TAF HSPN 191100Z 1912/2018 02012G22KT CAVOK 
     TEMPO 1912/1915 6000 NSC 
     BECMG 1921/1923 32010KT